Primeira Cruz, Brazil
Current Conditions -  °F | °C
As of 12:00 PM on Thursday 23 Oct 2014 (Local Time) from SBSL Reporting Station
Scattered Clouds Scattered Clouds  
Wind Chill: 88°   Ceiling: Unl
Heat Index: 91°   Visibility: 6mi
Dew Point: 68°   Wind: 12mph
Humidity: 52%   Direction: 60°ENE
Pressure: 29.88"   Gusts: NA
Location:  2.51°S, 43.44°W
Report Text: SBSL 231500Z 06010KT 030V100 9999 SCT017 FEW020TCU 31/20 Q1012
Loading
Personal Weather Stations






























Interactive Weather Map
Tropical Storm Tracking
New forecast layout! Learn more

10-Day Weather Forecast

Advertisements
Track Severe Weather on mobile